Time,TemperatureF,DewpointF,PressureIn,WindDirection,WindDirectionDegrees,WindSpeedMPH,WindSpeedGustMPH,Humidity,HourlyPrecipIn,Conditions,Clouds,dailyrainin,SoftwareType,DateUTC
2013-08-14 00:00:00,54.5,48.1,29.87,SSE,162,0.0,0.0,79,0.00,,OVC055,0.00,VWS V14.01,2013-08-14 04:00:00,
2013-08-14 00:01:00,54.5,48.1,29.87,SSE,162,0.0,0.0,79,0.00,,OVC055,0.00,VWS V14.01,2013-08-14 04:01:00,
2013-08-14 00:02:00,54.5,48.1,29.87,SSE,162,0.0,0.0,79,0.00,,OVC055,0.00,VWS V14.01,2013-08-14 04:02:00,
2013-08-14 00:07:00,54.3,48.0,29.87,SSE,162,0.0,0.0,79,0.00,,OVC055,0.00,VWS V14.01,2013-08-14 04:07:00,
2013-08-14 00:12:00,54.1,47.8,29.87,SSE,162,0.0,0.0,79,0.00,,OVC055,0.00,VWS V14.01,2013-08-14 04:12:00,
2013-08-14 00:17:00,54.0,47.3,29.87,SSE,162,0.0,0.0,78,0.00,,OVC055,0.00,VWS V14.01,2013-08-14 04:17:00,
2013-08-14 00:22:00,53.4,47.1,29.87,SSE,162,0.0,0.0,79,0.00,,OVC055,0.00,VWS V14.01,2013-08-14 04:22:00,
2013-08-14 00:27:00,53.1,46.7,29.87,SSE,162,0.0,0.0,79,0.00,,OVC055,0.00,VWS V14.01,2013-08-14 04:27:00,
2013-08-14 00:32:00,53.1,46.7,29.87,SSE,162,0.0,0.0,79,0.00,,OVC055,0.00,VWS V14.01,2013-08-14 04:32:00,
2013-08-14 00:37:00,53.1,46.7,29.87,SSE,162,0.0,0.0,79,0.00,,OVC055,0.00,VWS V14.01,2013-08-14 04:37:00,
2013-08-14 00:42:00,52.9,46.5,29.84,SSE,162,0.0,0.0,79,0.00,,OVC020,0.00,VWS V14.01,2013-08-14 04:42:00,
2013-08-14 00:47:00,52.7,46.4,29.84,SSE,162,0.0,0.0,79,0.00,,OVC020,0.00,VWS V14.01,2013-08-14 04:47:00,
2013-08-14 00:52:00,52.7,46.4,29.84,SSE,162,0.0,0.0,79,0.00,,OVC020,0.00,VWS V14.01,2013-08-14 04:52:00,
2013-08-14 00:57:00,52.7,46.4,29.84,SSE,162,0.0,0.0,79,0.00,,OVC020,0.00,VWS V14.01,2013-08-14 04:57:00,
2013-08-14 01:02:00,52.7,46.4,29.84,SSE,162,0.0,0.0,79,0.00,,OVC020,0.00,VWS V14.01,2013-08-14 05:02:00,
2013-08-14 01:07:00,52.7,46.7,29.84,SSE,162,0.0,0.0,80,0.00,,OVC020,0.00,VWS V14.01,2013-08-14 05:07:00,
2013-08-14 01:12:00,52.7,46.7,29.84,SSE,162,0.0,0.0,80,0.00,,OVC020,0.00,VWS V14.01,2013-08-14 05:12:00,
2013-08-14 01:17:00,53.1,47.1,29.84,SSE,162,0.0,0.0,80,0.00,,OVC020,0.00,VWS V14.01,2013-08-14 05:17:00,
2013-08-14 01:22:00,53.1,47.1,29.84,SSE,162,0.0,0.0,80,0.00,,OVC020,0.00,VWS V14.01,2013-08-14 05:22:00,
2013-08-14 01:27:00,53.2,47.2,29.84,SSE,162,0.0,0.0,80,0.00,,OVC020,0.00,VWS V14.01,2013-08-14 05:27:00,
2013-08-14 01:32:00,53.4,47.1,29.84,SSE,162,0.0,0.0,79,0.00,,OVC020,0.00,VWS V14.01,2013-08-14 05:32:00,
2013-08-14 01:37:00,53.4,47.1,29.84,SSE,162,0.0,0.0,79,0.00,,OVC020,0.00,VWS V14.01,2013-08-14 05:37:00,
2013-08-14 01:42:00,53.6,46.9,29.84,SSE,162,0.0,0.0,78,0.00,,FEW016,0.00,VWS V14.01,2013-08-14 05:42:00,
2013-08-14 01:47:00,53.6,46.6,29.84,SSE,162,0.0,0.0,77,0.00,,FEW016,0.00,VWS V14.01,2013-08-14 05:47:00,
2013-08-14 01:52:00,53.6,46.6,29.84,SSE,162,0.0,0.0,77,0.00,,FEW016,0.00,VWS V14.01,2013-08-14 05:52:00,
2013-08-14 01:57:00,53.6,46.2,29.84,SSE,162,0.0,0.0,76,0.00,,FEW016,0.00,VWS V14.01,2013-08-14 05:57:00,
2013-08-14 02:02:00,53.6,46.2,29.84,SSE,162,0.0,0.0,76,0.00,,FEW016,0.00,VWS V14.01,2013-08-14 06:02:00,
2013-08-14 02:07:00,53.4,46.1,29.84,SSE,162,0.0,0.0,76,0.00,,FEW016,0.00,VWS V14.01,2013-08-14 06:07:00,
2013-08-14 02:12:00,53.4,46.1,29.84,SSE,162,0.0,0.0,76,0.00,,FEW016,0.00,VWS V14.01,2013-08-14 06:12:00,
2013-08-14 02:17:00,53.4,46.1,29.84,SSE,162,0.0,0.0,76,0.00,,FEW016,0.00,VWS V14.01,2013-08-14 06:17:00,
2013-08-14 02:22:00,53.4,46.1,29.84,SSE,162,0.0,0.0,76,0.00,,FEW016,0.00,VWS V14.01,2013-08-14 06:22:00,
2013-08-14 02:27:00,53.4,45.7,29.84,SSE,162,0.0,0.0,75,0.00,,FEW016,0.00,VWS V14.01,2013-08-14 06:27:00,
2013-08-14 02:32:00,53.4,45.7,29.84,South,171,3.6,3.6,75,0.00,,FEW016,0.00,VWS V14.01,2013-08-14 06:32:00,
2013-08-14 02:37:00,53.4,45.7,29.84,South,171,3.6,3.6,75,0.00,,FEW016,0.00,VWS V14.01,2013-08-14 06:37:00,
2013-08-14 02:42:00,53.4,45.7,29.84,South,171,3.6,3.6,75,0.00,,FEW014,0.00,VWS V14.01,2013-08-14 06:42:00,
2013-08-14 02:47:00,53.4,45.3,29.84,South,171,3.6,3.6,74,0.00,,FEW014,0.00,VWS V14.01,2013-08-14 06:47:00,
2013-08-14 02:52:00,53.4,45.3,29.84,South,171,3.6,3.6,74,0.00,,FEW014,0.00,VWS V14.01,2013-08-14 06:52:00,
2013-08-14 02:57:00,53.4,45.3,29.84,SSE,163,3.6,3.6,74,0.00,,FEW014,0.00,VWS V14.01,2013-08-14 06:57:00,
2013-08-14 03:02:00,53.2,44.8,29.84,SSE,162,3.6,4.0,73,0.00,,FEW014,0.00,VWS V14.01,2013-08-14 07:02:00,
2013-08-14 03:07:00,52.7,44.3,29.84,SSE,162,2.7,4.0,73,0.00,,FEW014,0.00,VWS V14.01,2013-08-14 07:07:00,
2013-08-14 03:12:00,52.3,44.0,29.84,SSE,162,2.7,2.7,73,0.00,,FEW014,0.00,VWS V14.01,2013-08-14 07:12:00,
2013-08-14 03:17:00,52.0,43.6,29.84,SSE,162,2.7,2.7,73,0.00,,FEW014,0.00,VWS V14.01,2013-08-14 07:17:00,
2013-08-14 03:22:00,51.6,43.6,29.84,SSE,162,2.7,2.7,74,0.00,,FEW014,0.00,VWS V14.01,2013-08-14 07:22:00,
2013-08-14 03:27:00,51.4,43.4,29.84,SSE,162,2.7,2.7,74,0.00,,FEW014,0.00,VWS V14.01,2013-08-14 07:27:00,
2013-08-14 03:32:00,50.9,42.9,29.84,SSE,162,2.7,2.7,74,0.00,,FEW014,0.00,VWS V14.01,2013-08-14 07:32:00,
2013-08-14 03:37:00,50.7,42.8,29.84,SSE,162,2.7,2.7,74,0.00,,FEW014,0.00,VWS V14.01,2013-08-14 07:37:00,
2013-08-14 03:42:00,50.5,42.9,29.84,SSE,162,2.7,2.7,75,0.00,,BKN035,0.00,VWS V14.01,2013-08-14 07:42:00,
2013-08-14 03:47:00,50.5,42.9,29.84,SSE,162,2.7,2.7,75,0.00,,BKN035,0.00,VWS V14.01,2013-08-14 07:47:00,
2013-08-14 03:52:00,50.4,42.8,29.84,SSE,162,2.7,2.7,75,0.00,,BKN032,0.00,VWS V14.01,2013-08-14 07:52:00,
2013-08-14 03:57:00,50.2,42.6,29.84,SSE,166,0.0,2.7,75,0.00,,BKN032,0.39,VWS V14.01,2013-08-14 07:57:00,
2013-08-14 04:02:00,50.2,42.6,29.84,SSE,166,0.0,0.0,75,0.00,,BKN032,0.00,VWS V14.01,2013-08-14 08:02:00,
2013-08-14 04:07:00,50.4,43.1,29.84,SSE,166,0.0,0.0,76,0.00,,BKN032,0.00,VWS V14.01,2013-08-14 08:07:00,
2013-08-14 04:12:00,50.4,43.1,29.84,SSE,166,0.0,0.0,76,0.00,,BKN032,0.00,VWS V14.01,2013-08-14 08:12:00,
2013-08-14 04:17:00,50.4,43.1,29.84,SSE,166,0.0,0.0,76,0.00,,BKN032,0.00,VWS V14.01,2013-08-14 08:17:00,
2013-08-14 04:22:00,50.2,42.9,29.84,SSE,166,0.0,0.0,76,0.00,,BKN032,0.00,VWS V14.01,2013-08-14 08:22:00,
2013-08-14 04:27:00,50.2,43.3,29.84,SSE,166,0.0,0.0,77,0.00,,BKN032,0.00,VWS V14.01,2013-08-14 08:27:00,
2013-08-14 04:32:00,50.2,43.3,29.84,SSE,166,0.0,0.0,77,0.00,,BKN032,0.00,VWS V14.01,2013-08-14 08:32:00,
2013-08-14 04:37:00,50.2,43.3,29.84,SSE,166,0.0,0.0,77,0.00,,BKN032,0.00,VWS V14.01,2013-08-14 08:37:00,
2013-08-14 04:42:00,49.8,43.2,29.84,SSE,166,0.0,0.0,78,0.00,,OVC030,0.00,VWS V14.01,2013-08-14 08:42:00,
2013-08-14 04:47:00,49.6,42.7,29.84,SSE,166,0.0,0.0,77,0.00,,OVC030,0.00,VWS V14.01,2013-08-14 08:47:00,
2013-08-14 04:52:00,49.1,42.2,29.84,SSE,166,0.0,0.0,77,0.00,,OVC030,0.00,VWS V14.01,2013-08-14 08:52:00,
2013-08-14 04:57:00,48.9,42.4,29.81,SSE,166,0.0,0.0,78,0.00,,OVC030,0.00,VWS V14.01,2013-08-14 08:57:00,
2013-08-14 05:02:00,48.7,42.2,29.81,SSE,166,0.0,0.0,78,0.00,,OVC030,0.00,VWS V14.01,2013-08-14 09:02:00,
2013-08-14 05:07:00,48.4,41.8,29.81,SSE,166,0.0,0.0,78,0.00,,OVC030,0.00,VWS V14.01,2013-08-14 09:07:00,
2013-08-14 05:12:00,48.2,41.7,29.84,SSE,166,0.0,0.0,78,0.00,,OVC030,0.00,VWS V14.01,2013-08-14 09:12:00,
2013-08-14 05:17:00,48.0,41.8,29.84,SSE,166,0.0,0.0,79,0.00,,OVC030,0.00,VWS V14.01,2013-08-14 09:17:00,
2013-08-14 05:22:00,48.0,41.8,29.84,SSE,166,0.0,0.0,79,0.00,,OVC030,0.00,VWS V14.01,2013-08-14 09:22:00,
2013-08-14 05:27:00,48.0,42.2,29.84,SSE,166,0.0,0.0,80,0.00,,OVC030,0.00,VWS V14.01,2013-08-14 09:27:00,
2013-08-14 05:32:00,48.6,42.7,29.84,SSE,165,0.0,0.0,80,0.00,,OVC030,0.00,VWS V14.01,2013-08-14 09:32:00,
2013-08-14 05:37:00,48.6,42.7,29.84,SSE,165,0.0,0.0,80,0.00,,OVC030,0.00,VWS V14.01,2013-08-14 09:37:00,
2013-08-14 05:42:00,48.7,42.9,29.84,SSE,165,0.0,0.0,80,0.00,,OVC015,0.00,VWS V14.01,2013-08-14 09:42:00,
2013-08-14 05:47:00,48.7,42.9,29.84,SSE,165,0.0,0.0,80,0.00,,OVC015,0.00,VWS V14.01,2013-08-14 09:47:00,
2013-08-14 05:52:00,48.7,43.2,29.84,SSE,165,0.0,0.0,81,0.00,,OVC015,0.00,VWS V14.01,2013-08-14 09:52:00,
2013-08-14 05:57:00,48.9,43.7,29.84,SSE,165,0.0,0.0,82,0.00,,OVC015,0.00,VWS V14.01,2013-08-14 09:57:00,
2013-08-14 06:02:00,48.9,43.7,29.84,SSE,165,0.0,0.0,82,0.00,,OVC015,0.00,VWS V14.01,2013-08-14 10:02:00,
2013-08-14 06:07:00,48.9,43.7,29.84,SSE,165,0.0,0.0,82,0.00,,OVC015,0.00,VWS V14.01,2013-08-14 10:07:00,
2013-08-14 06:12:00,48.9,43.7,29.84,SSE,165,0.0,0.0,82,0.00,,OVC015,0.00,VWS V14.01,2013-08-14 10:12:00,
2013-08-14 06:17:00,50.0,45.0,29.84,SSE,165,0.0,0.0,83,0.00,,OVC015,0.00,VWS V14.01,2013-08-14 10:17:00,
2013-08-14 06:22:00,50.0,45.0,29.84,SSE,165,0.0,0.0,83,0.00,,OVC015,0.00,VWS V14.01,2013-08-14 10:22:00,
2013-08-14 06:27:00,50.2,45.2,29.84,SSE,165,0.0,0.0,83,0.00,,OVC015,0.00,VWS V14.01,2013-08-14 10:27:00,
2013-08-14 06:32:00,50.2,45.2,29.84,SSE,165,0.0,0.0,83,0.00,,OVC015,0.00,VWS V14.01,2013-08-14 10:32:00,
2013-08-14 06:37:00,50.2,45.2,29.84,SSE,165,0.0,0.0,83,0.00,,OVC015,0.00,VWS V14.01,2013-08-14 10:37:00,
2013-08-14 06:42:00,50.0,45.0,29.84,SSE,165,0.0,0.0,83,0.00,,OVC032,0.00,VWS V14.01,2013-08-14 10:42:00,
2013-08-14 06:47:00,50.0,45.0,29.84,SSE,165,0.0,0.0,83,0.00,,OVC032,0.00,VWS V14.01,2013-08-14 10:47:00,
2013-08-14 06:52:00,50.0,45.0,29.84,SSE,165,0.0,0.0,83,0.00,,OVC032,0.00,VWS V14.01,2013-08-14 10:52:00,
2013-08-14 06:57:00,50.0,45.0,29.84,SSE,165,0.0,0.0,83,0.00,,OVC032,0.00,VWS V14.01,2013-08-14 10:57:00,
2013-08-14 07:02:00,50.0,45.4,29.84,SSE,165,0.0,0.0,84,0.00,,OVC032,0.00,VWS V14.01,2013-08-14 11:02:00,
2013-08-14 07:07:00,50.4,45.7,29.84,SSE,165,0.0,0.0,84,0.00,,OVC032,0.39,VWS V14.01,2013-08-14 11:07:00,
2013-08-14 07:12:00,50.4,45.7,29.84,SSE,165,0.0,0.0,84,0.00,,OVC032,0.00,VWS V14.01,2013-08-14 11:12:00,
2013-08-14 07:17:00,50.9,46.2,29.84,SSE,165,0.0,0.0,84,0.00,,OVC032,0.00,VWS V14.01,2013-08-14 11:17:00,
2013-08-14 07:22:00,50.9,46.2,29.84,SSE,165,0.0,0.0,84,0.00,,OVC032,0.00,VWS V14.01,2013-08-14 11:22:00,
2013-08-14 07:27:00,51.4,47.1,29.84,SSE,165,0.0,0.0,85,0.00,,OVC032,0.00,VWS V14.01,2013-08-14 11:27:00,
2013-08-14 07:32:00,52.0,47.6,29.84,SSE,165,0.0,0.0,85,0.00,,OVC032,0.00,VWS V14.01,2013-08-14 11:32:00,
2013-08-14 07:38:00,52.2,47.8,29.84,SSE,165,0.0,0.0,85,0.00,,OVC032,0.00,VWS V14.01,2013-08-14 11:38:00,
2013-08-14 07:43:00,52.3,48.0,29.84,SSE,165,0.0,0.0,85,0.00,,OVC013,0.00,VWS V14.01,2013-08-14 11:43:00,
2013-08-14 07:48:00,52.3,48.0,29.84,SSE,164,2.7,2.7,85,0.00,,OVC013,0.00,VWS V14.01,2013-08-14 11:48:00,
2013-08-14 07:53:00,52.5,47.8,29.84,SSE,164,2.7,2.7,84,0.00,,OVC013,0.00,VWS V14.01,2013-08-14 11:53:00,
2013-08-14 07:58:00,52.5,47.8,29.84,SSE,164,2.7,2.7,84,0.00,,OVC013,0.00,VWS V14.01,2013-08-14 11:58:00,
2013-08-14 08:03:00,52.9,48.2,29.84,SSE,164,2.7,2.7,84,0.00,,OVC013,0.00,VWS V14.01,2013-08-14 12:03:00,
2013-08-14 08:08:00,53.2,48.5,29.84,SSE,164,2.7,2.7,84,0.00,,OVC013,0.00,VWS V14.01,2013-08-14 12:08:00,
2013-08-14 08:13:00,53.2,48.5,29.84,SSE,164,2.7,2.7,84,0.00,,OVC013,0.00,VWS V14.01,2013-08-14 12:13:00,
2013-08-14 08:18:00,53.6,48.6,29.84,SSE,164,2.7,2.7,83,0.00,,OVC013,0.00,VWS V14.01,2013-08-14 12:18:00,
2013-08-14 08:23:00,53.6,48.6,29.84,SSE,164,2.7,2.7,83,0.00,,OVC013,0.00,VWS V14.01,2013-08-14 12:23:00,
2013-08-14 08:28:00,53.8,48.4,29.84,SSE,164,2.7,2.7,82,0.00,,OVC013,0.00,VWS V14.01,2013-08-14 12:28:00,
2013-08-14 08:33:00,53.8,48.4,29.84,SSE,164,2.7,2.7,82,0.00,,OVC013,0.00,VWS V14.01,2013-08-14 12:33:00,
2013-08-14 08:38:00,53.8,48.4,29.84,SSE,164,2.7,2.7,82,0.00,,OVC013,0.00,VWS V14.01,2013-08-14 12:38:00,
2013-08-14 08:43:00,54.7,49.0,29.84,SSE,164,2.7,2.7,81,0.00,,OVC013,0.00,VWS V14.01,2013-08-14 12:43:00,
2013-08-14 08:48:00,54.7,49.0,29.84,SSE,164,2.7,2.7,81,0.00,,OVC013,0.00,VWS V14.01,2013-08-14 12:48:00,
2013-08-14 08:53:00,54.9,48.8,29.84,SSE,164,2.7,2.7,80,0.00,,,0.00,VWS V14.01,2013-08-14 12:53:00,
2013-08-14 08:58:00,54.9,48.8,29.84,SSE,164,2.7,2.7,80,0.00,,,0.00,VWS V14.01,2013-08-14 12:58:00,
2013-08-14 09:03:00,55.2,49.2,29.84,NE,34,0.0,0.0,80,0.00,,,0.00,VWS V14.01,2013-08-14 13:03:00,
2013-08-14 09:08:00,55.4,49.0,29.84,SSE,160,0.0,0.0,79,0.00,,,0.00,VWS V14.01,2013-08-14 13:08:00,
2013-08-14 09:13:00,55.4,49.0,29.87,SSE,160,0.0,0.0,79,0.00,,,0.00,VWS V14.01,2013-08-14 13:13:00,
2013-08-14 09:18:00,55.0,48.7,29.87,SSE,160,0.0,0.0,79,0.00,,,0.00,VWS V14.01,2013-08-14 13:18:00,
2013-08-14 09:23:00,55.0,48.7,29.87,SSE,160,0.0,0.0,79,0.00,,,0.00,VWS V14.01,2013-08-14 13:23:00,
2013-08-14 09:28:00,55.0,48.7,29.87,SSE,160,0.0,0.0,79,0.00,,,0.00,VWS V14.01,2013-08-14 13:28:00,
2013-08-14 09:33:00,54.7,48.3,29.87,SSE,160,0.0,0.0,79,0.00,,,0.00,VWS V14.01,2013-08-14 13:33:00,
2013-08-14 09:38:00,54.7,48.3,29.87,SSE,160,0.0,0.0,79,0.00,,,0.00,VWS V14.01,2013-08-14 13:38:00,
2013-08-14 09:43:00,54.7,48.3,29.87,SSE,160,0.0,0.0,79,0.00,,-RA,0.00,VWS V14.01,2013-08-14 13:43:00,
2013-08-14 09:48:00,54.7,48.3,29.87,SSE,160,0.0,0.0,79,0.00,,-RA,0.00,VWS V14.01,2013-08-14 13:48:00,
2013-08-14 09:53:00,54.5,48.8,29.87,SSE,160,0.0,0.0,81,0.00,,-RA,0.00,VWS V14.01,2013-08-14 13:53:00,
2013-08-14 09:58:00,54.5,48.8,29.87,SSE,160,0.0,0.0,81,0.00,,-RA,0.00,VWS V14.01,2013-08-14 13:58:00,
2013-08-14 10:03:00,54.5,48.8,29.87,SSE,160,0.0,0.0,81,0.00,,-RA,0.00,VWS V14.01,2013-08-14 14:03:00,
2013-08-14 10:08:00,54.9,49.5,29.87,SSE,160,0.0,0.0,82,0.00,,-RA,0.00,VWS V14.01,2013-08-14 14:08:00,
2013-08-14 10:13:00,54.9,49.5,29.87,SSE,160,0.0,0.0,82,0.00,,-RA,0.00,VWS V14.01,2013-08-14 14:13:00,
2013-08-14 10:18:00,56.1,50.7,29.87,SSE,160,0.0,0.0,82,0.00,,-RA,0.00,VWS V14.01,2013-08-14 14:18:00,
2013-08-14 10:23:00,56.1,50.7,29.87,SSE,160,0.0,0.0,82,0.00,,-RA,0.00,VWS V14.01,2013-08-14 14:23:00,
2013-08-14 10:28:00,56.7,51.2,29.87,SSE,160,0.0,0.0,82,0.00,,-RA,0.00,VWS V14.01,2013-08-14 14:28:00,
2013-08-14 10:33:00,56.5,50.7,29.87,SSE,160,0.0,0.0,81,0.00,,-RA,0.00,VWS V14.01,2013-08-14 14:33:00,
2013-08-14 10:38:00,56.5,50.7,29.87,SSE,160,0.0,0.0,81,0.00,,-RA,0.00,VWS V14.01,2013-08-14 14:38:00,
2013-08-14 10:43:00,57.6,51.5,29.90,SSE,160,0.0,0.0,80,0.00,,-RA,0.00,VWS V14.01,2013-08-14 14:43:00,
2013-08-14 10:48:00,57.6,51.5,29.90,SSE,160,0.0,0.0,80,0.00,,-RA,0.00,VWS V14.01,2013-08-14 14:48:00,
2013-08-14 10:53:00,58.8,52.3,29.90,SSE,160,0.0,0.0,79,0.00,,OVC055,0.00,VWS V14.01,2013-08-14 14:53:00,
2013-08-14 10:58:00,58.8,52.3,29.90,SSE,160,0.0,0.0,79,0.00,,OVC055,0.00,VWS V14.01,2013-08-14 14:58:00,
2013-08-14 11:03:00,58.6,51.5,29.90,SSE,160,0.0,0.0,77,0.00,,OVC055,0.00,VWS V14.01,2013-08-14 15:03:00,
2013-08-14 11:08:00,57.2,49.0,29.90,SSE,160,0.0,0.0,74,0.00,,OVC055,0.00,VWS V14.01,2013-08-14 15:08:00,
2013-08-14 11:13:00,57.2,49.0,29.90,SSE,160,0.0,0.0,74,0.00,,OVC055,0.00,VWS V14.01,2013-08-14 15:13:00,
2013-08-14 11:18:00,56.3,48.5,29.90,SSE,160,0.0,0.0,75,0.00,,OVC055,0.00,VWS V14.01,2013-08-14 15:18:00,
2013-08-14 11:23:00,56.3,48.5,29.90,SSE,160,0.0,0.0,75,0.00,,OVC055,0.00,VWS V14.01,2013-08-14 15:23:00,
2013-08-14 11:28:00,56.3,48.8,29.90,SSE,160,0.0,0.0,76,0.00,,OVC055,0.00,VWS V14.01,2013-08-14 15:28:00,
2013-08-14 11:33:00,56.3,49.5,29.90,SSE,160,0.0,0.0,78,0.00,,OVC055,0.00,VWS V14.01,2013-08-14 15:33:00,
2013-08-14 11:38:00,56.3,49.5,29.90,SSE,160,0.0,0.0,78,0.00,,OVC055,0.00,VWS V14.01,2013-08-14 15:38:00,
2013-08-14 11:43:00,56.7,50.2,29.90,SSE,160,0.0,0.0,79,0.00,,-RA,0.00,VWS V14.01,2013-08-14 15:43:00,
2013-08-14 11:48:00,56.7,50.2,29.90,SSE,160,0.0,0.0,79,0.00,,-RA,0.00,VWS V14.01,2013-08-14 15:48:00,
2013-08-14 11:54:00,56.8,50.7,29.90,SSE,160,0.0,0.0,80,0.00,,-RA,0.00,VWS V14.01,2013-08-14 15:54:00,
2013-08-14 11:59:00,56.8,50.7,29.90,SSE,160,0.0,0.0,80,0.00,,-RA,0.00,VWS V14.01,2013-08-14 15:59:00,
2013-08-14 12:04:00,56.8,50.7,29.90,SSE,160,0.0,0.0,80,0.00,,-RA,0.00,VWS V14.01,2013-08-14 16:04:00,
2013-08-14 12:09:00,56.8,50.7,29.90,SSE,160,0.0,0.0,80,0.00,,-RA,0.00,VWS V14.01,2013-08-14 16:09:00,
2013-08-14 12:14:00,56.8,50.7,29.90,SSE,160,0.0,0.0,80,0.00,,-RA,0.00,VWS V14.01,2013-08-14 16:14:00,
2013-08-14 12:19:00,57.9,51.5,29.90,SSE,160,0.0,0.0,79,0.00,,-RA,0.00,VWS V14.01,2013-08-14 16:19:00,
2013-08-14 12:24:00,57.6,50.1,29.90,SSE,160,0.0,0.0,76,0.00,,-RA,0.00,VWS V14.01,2013-08-14 16:24:00,
2013-08-14 12:29:00,56.8,49.4,29.93,SSE,160,0.0,0.0,76,0.00,,-RA,0.00,VWS V14.01,2013-08-14 16:29:00,
2013-08-14 12:34:00,56.8,49.4,29.93,SSE,160,0.0,0.0,76,0.00,,-RA,0.00,VWS V14.01,2013-08-14 16:34:00,
2013-08-14 12:39:00,56.8,49.4,29.93,SSE,160,0.0,0.0,76,0.00,,-RA,0.00,VWS V14.01,2013-08-14 16:39:00,
2013-08-14 12:44:00,56.8,49.4,29.93,SSE,160,0.0,0.0,76,0.00,,OVC055,0.00,VWS V14.01,2013-08-14 16:44:00,
2013-08-14 12:50:00,56.8,49.4,29.93,SSE,160,0.0,0.0,76,0.00,,OVC055,0.00,VWS V14.01,2013-08-14 16:50:00,
2013-08-14 12:55:00,56.8,49.4,29.93,SSE,160,0.0,0.0,76,0.00,,OVC029,0.00,VWS V14.01,2013-08-14 16:55:00,
2013-08-14 13:00:00,56.8,49.4,29.93,SSE,160,0.0,0.0,76,0.00,,OVC029,0.00,VWS V14.01,2013-08-14 17:00:00,
2013-08-14 13:05:00,56.8,49.4,29.93,SSE,160,0.0,0.0,76,0.00,,OVC029,0.00,VWS V14.01,2013-08-14 17:05:00,
2013-08-14 13:10:00,58.5,48.0,29.93,SSE,160,0.0,0.0,68,0.00,,OVC029,0.00,VWS V14.01,2013-08-14 17:10:00,
2013-08-14 13:15:00,58.5,48.0,29.90,SSE,160,0.0,0.0,68,0.00,,OVC029,0.00,VWS V14.01,2013-08-14 17:15:00,
2013-08-14 13:20:00,60.1,50.3,29.90,SSE,160,0.0,0.0,70,0.00,,OVC029,0.00,VWS V14.01,2013-08-14 17:20:00,
2013-08-14 13:25:00,60.1,50.3,29.90,SSE,160,0.0,0.0,70,0.00,,OVC029,0.00,VWS V14.01,2013-08-14 17:25:00,
2013-08-14 13:30:00,62.2,52.0,29.90,SSE,160,0.0,0.0,69,0.00,,OVC029,0.00,VWS V14.01,2013-08-14 17:30:00,
2013-08-14 13:35:00,62.2,52.0,29.90,SSE,160,0.0,0.0,69,0.00,,OVC029,0.00,VWS V14.01,2013-08-14 17:35:00,
2013-08-14 13:40:00,63.3,51.8,29.90,SSE,160,0.0,0.0,66,0.00,,-RA,0.00,VWS V14.01,2013-08-14 17:40:00,
2013-08-14 13:45:00,63.3,51.8,29.93,SSE,160,0.0,0.0,66,0.00,,-RA,0.00,VWS V14.01,2013-08-14 17:45:00,
2013-08-14 13:50:00,63.3,51.8,29.93,SSE,160,0.0,0.0,66,0.00,,BKN060,0.00,VWS V14.01,2013-08-14 17:50:00,
2013-08-14 13:55:00,62.8,46.9,29.93,SSE,160,0.0,0.0,56,0.00,,BKN060,0.00,VWS V14.01,2013-08-14 17:55:00,
2013-08-14 14:00:00,62.8,46.9,29.93,SSE,160,0.0,0.0,56,0.00,,BKN060,0.00,VWS V14.01,2013-08-14 18:00:00,
2013-08-14 14:05:00,62.6,44.8,29.93,SSE,160,0.0,0.0,52,0.00,,BKN060,0.00,VWS V14.01,2013-08-14 18:05:00,
2013-08-14 14:10:00,59.9,46.0,29.93,SSE,160,0.0,0.0,60,0.00,,BKN060,0.00,VWS V14.01,2013-08-14 18:10:00,
2013-08-14 14:16:00,59.9,46.0,29.93,SSE,160,0.0,0.0,60,0.00,,BKN060,0.00,VWS V14.01,2013-08-14 18:16:00,
2013-08-14 14:21:00,58.3,47.0,29.93,SSE,160,0.0,0.0,66,0.00,,BKN060,0.00,VWS V14.01,2013-08-14 18:21:00,
2013-08-14 14:26:00,58.3,47.0,29.93,SSE,160,0.0,0.0,66,0.00,,BKN060,0.00,VWS V14.01,2013-08-14 18:26:00,
2013-08-14 14:32:00,58.3,47.0,29.93,SSE,160,0.0,0.0,66,0.00,,BKN060,0.00,VWS V14.01,2013-08-14 18:32:00,
2013-08-14 14:37:00,58.6,48.9,29.93,SSE,160,0.0,0.0,70,0.00,,BKN060,0.00,VWS V14.01,2013-08-14 18:37:00,
2013-08-14 14:42:00,58.6,48.9,29.93,SSE,160,0.0,0.0,70,0.00,,RA,0.00,VWS V14.01,2013-08-14 18:42:00,
2013-08-14 14:47:00,59.2,48.6,29.93,SSE,160,0.0,0.0,68,0.04,,RA,0.04,VWS V14.01,2013-08-14 18:47:00,
2013-08-14 14:53:00,59.2,48.6,29.93,SSE,160,0.0,0.0,68,0.04,,RA,0.04,VWS V14.01,2013-08-14 18:53:00,
2013-08-14 14:58:00,59.2,48.6,29.93,SSE,160,0.0,0.0,68,0.04,,RA,0.04,VWS V14.01,2013-08-14 18:58:00,
2013-08-14 15:03:00,59.4,46.3,29.93,SSE,160,0.0,0.0,62,0.04,,RA,0.04,VWS V14.01,2013-08-14 19:03:00,
2013-08-14 15:08:00,59.4,46.3,29.93,SSE,160,0.0,0.0,62,0.04,,RA,0.04,VWS V14.01,2013-08-14 19:08:00,
2013-08-14 15:13:00,60.4,47.8,29.93,SSE,160,0.0,0.0,63,0.04,,RA,0.04,VWS V14.01,2013-08-14 19:13:00,
2013-08-14 15:18:00,60.4,47.8,29.93,SSE,160,0.0,0.0,63,0.04,,RA,0.04,VWS V14.01,2013-08-14 19:18:00,
2013-08-14 15:23:00,62.6,48.1,29.93,SSE,160,0.0,0.0,59,0.04,,RA,0.04,VWS V14.01,2013-08-14 19:23:00,
2013-08-14 15:28:00,62.6,48.1,29.93,SSE,160,0.0,0.0,59,0.04,,RA,0.04,VWS V14.01,2013-08-14 19:28:00,
2013-08-14 15:33:00,60.4,42.2,29.93,SSE,160,0.0,0.0,51,0.04,,RA,0.04,VWS V14.01,2013-08-14 19:33:00,
2013-08-14 15:38:00,58.6,42.1,29.93,SSE,160,0.0,0.0,54,0.04,,RA,0.04,VWS V14.01,2013-08-14 19:38:00,
2013-08-14 15:43:00,57.4,41.4,29.96,SSE,160,0.0,0.0,55,0.04,,BKN060,0.04,VWS V14.01,2013-08-14 19:43:00,
2013-08-14 15:48:00,56.5,42.8,29.96,North,4,0.0,0.0,60,0.04,,BKN060,0.04,VWS V14.01,2013-08-14 19:48:00,
2013-08-14 15:53:00,56.5,46.1,29.96,North,4,0.0,0.0,68,0.00,,BKN060,0.04,VWS V14.01,2013-08-14 19:53:00,
2013-08-14 15:58:00,56.5,46.1,29.96,North,357,0.0,0.0,68,0.00,,BKN060,0.04,VWS V14.01,2013-08-14 19:58:00,
2013-08-14 16:04:00,57.2,48.6,29.96,North,357,0.0,0.0,73,0.00,,BKN060,0.04,VWS V14.01,2013-08-14 20:04:00,
2013-08-14 16:09:00,57.2,48.6,29.96,North,357,0.0,0.0,73,0.00,,BKN060,0.04,VWS V14.01,2013-08-14 20:09:00,
2013-08-14 16:14:00,57.7,49.2,29.96,SW,214,0.0,0.0,73,0.00,,BKN060,0.04,VWS V14.01,2013-08-14 20:14:00,
2013-08-14 16:19:00,58.5,49.8,29.96,WSW,246,0.0,0.0,73,0.00,,BKN060,0.04,VWS V14.01,2013-08-14 20:19:00,
2013-08-14 16:24:00,58.5,49.8,29.96,SSW,192,2.7,2.7,73,0.00,,BKN060,0.04,VWS V14.01,2013-08-14 20:24:00,
2013-08-14 16:29:00,58.8,49.8,29.96,SSW,192,2.7,2.7,72,0.00,,BKN060,0.04,VWS V14.01,2013-08-14 20:29:00,
2013-08-14 16:45:00,59.2,47.0,29.98,North,11,4.0,4.0,64,0.00,,BKN060,0.04,VWS V14.01,2013-08-14 20:45:00,
2013-08-14 16:50:00,58.8,45.8,29.98,North,3,0.0,0.0,62,0.00,,BKN070,0.04,VWS V14.01,2013-08-14 20:50:00,
2013-08-14 16:55:00,58.8,46.3,29.98,NNW,335,0.0,3.6,63,0.00,,BKN070,0.04,VWS V14.01,2013-08-14 20:55:00,
2013-08-14 17:01:00,58.8,45.8,29.98,NNW,328,2.2,5.4,62,0.00,,BKN070,0.04,VWS V14.01,2013-08-14 21:01:00,
2013-08-14 17:06:00,59.2,46.6,29.98,SSE,160,0.0,5.4,63,0.00,,BKN070,0.04,VWS V14.01,2013-08-14 21:06:00,
2013-08-14 17:11:00,59.2,46.2,29.98,SSE,148,0.0,0.0,62,0.00,,BKN070,0.04,VWS V14.01,2013-08-14 21:11:00,
2013-08-14 17:16:00,59.2,46.6,29.98,South,169,0.0,0.0,63,0.00,,BKN070,0.04,VWS V14.01,2013-08-14 21:16:00,
2013-08-14 17:21:00,59.2,46.6,29.98,North,357,0.0,0.0,63,0.00,,BKN070,0.04,VWS V14.01,2013-08-14 21:21:00,
2013-08-14 17:26:00,59.2,46.6,29.98,SSE,158,5.8,5.8,63,0.00,,BKN070,0.04,VWS V14.01,2013-08-14 21:26:00,
2013-08-14 17:31:00,59.7,48.0,29.98,WSW,250,0.0,3.1,65,0.00,,BKN070,0.04,VWS V14.01,2013-08-14 21:31:00,
2013-08-14 17:36:00,59.9,47.7,29.98,SW,228,2.2,6.3,64,0.00,,BKN070,0.04,VWS V14.01,2013-08-14 21:36:00,
2013-08-14 17:41:00,59.9,47.7,29.98,South,180,0.0,0.0,64,0.00,,-RA,0.04,VWS V14.01,2013-08-14 21:41:00,
2013-08-14 17:46:00,59.9,47.7,29.98,South,169,0.0,0.0,64,0.00,,-RA,0.04,VWS V14.01,2013-08-14 21:46:00,
2013-08-14 17:51:00,59.7,47.5,29.98,WNW,295,2.7,2.7,64,0.00,,BKN070,0.04,VWS V14.01,2013-08-14 21:51:00,
2013-08-14 17:56:00,59.7,47.5,29.98,SSE,167,5.4,8.3,64,0.00,,BKN070,0.04,VWS V14.01,2013-08-14 21:56:00,
2013-08-14 18:01:00,59.5,47.4,29.98,SSE,161,0.0,3.6,64,0.00,,BKN070,0.04,VWS V14.01,2013-08-14 22:01:00,
2013-08-14 18:06:00,59.9,47.3,29.98,WNW,301,2.7,3.6,63,0.00,,BKN070,0.04,VWS V14.01,2013-08-14 22:06:00,
2013-08-14 18:11:00,59.9,46.9,29.98,SSW,201,2.7,3.6,62,0.00,,BKN070,0.04,VWS V14.01,2013-08-14 22:11:00,
2013-08-14 18:16:00,59.4,45.5,29.98,NW,317,2.7,7.2,60,0.00,,BKN070,0.04,VWS V14.01,2013-08-14 22:16:00,
2013-08-14 18:21:00,59.4,45.5,29.98,NNE,18,3.6,6.3,60,0.00,,BKN070,0.04,VWS V14.01,2013-08-14 22:21:00,
2013-08-14 18:26:00,59.0,45.2,30.01,SSE,160,2.2,7.6,60,0.00,,BKN070,0.04,VWS V14.01,2013-08-14 22:26:00,
2013-08-14 18:31:00,58.8,45.4,30.01,West,259,2.7,3.6,61,0.00,,BKN070,0.04,VWS V14.01,2013-08-14 22:31:00,
2013-08-14 18:36:00,59.0,46.0,30.01,NW,320,2.7,6.3,62,0.00,,BKN070,0.04,VWS V14.01,2013-08-14 22:36:00,
2013-08-14 18:41:00,58.8,46.3,30.01,North,8,0.0,0.0,63,0.00,,FEW023,0.04,VWS V14.01,2013-08-14 22:41:00,
2013-08-14 18:46:00,58.8,46.3,30.01,North,1,3.1,5.8,63,0.00,,FEW023,0.04,VWS V14.01,2013-08-14 22:46:00,
2013-08-14 18:51:00,58.8,45.8,30.01,North,357,3.1,6.7,62,0.00,,FEW023,0.04,VWS V14.01,2013-08-14 22:51:00,
2013-08-14 18:56:00,58.8,45.8,30.01,North,357,0.0,6.7,62,0.00,,FEW023,0.04,VWS V14.01,2013-08-14 22:56:00,
2013-08-14 19:02:00,58.8,45.8,30.01,NNW,344,4.0,4.9,62,0.00,,FEW023,0.04,VWS V14.01,2013-08-14 23:02:00,
2013-08-14 19:06:00,58.6,46.1,30.01,NNW,344,0.0,4.9,63,0.00,,FEW023,0.04,VWS V14.01,2013-08-14 23:06:00,
2013-08-14 19:11:00,58.6,46.1,30.01,NNW,344,0.0,0.0,63,0.00,,FEW023,0.04,VWS V14.01,2013-08-14 23:11:00,
2013-08-14 19:16:00,58.6,46.5,30.01,NNW,344,0.0,0.0,64,0.00,,FEW023,0.04,VWS V14.01,2013-08-14 23:16:00,
2013-08-14 19:21:00,58.5,45.9,30.01,NW,324,0.0,0.0,63,0.00,,FEW023,0.04,VWS V14.01,2013-08-14 23:21:00,
2013-08-14 19:26:00,58.3,44.9,30.01,SSW,210,0.0,0.0,61,0.00,,FEW023,0.04,VWS V14.01,2013-08-14 23:26:00,
2013-08-14 19:31:00,58.1,44.7,30.01,SSW,210,0.0,0.0,61,0.00,,FEW023,0.04,VWS V14.01,2013-08-14 23:31:00,
2013-08-14 19:36:00,57.7,44.0,30.01,SSW,201,0.0,0.0,60,0.00,,FEW023,0.04,VWS V14.01,2013-08-14 23:36:00,
2013-08-14 19:41:00,57.6,43.8,30.01,SSW,201,0.0,0.0,60,0.00,,SCT070,0.04,VWS V14.01,2013-08-14 23:41:00,
2013-08-14 19:46:00,57.2,43.5,30.01,SSW,201,0.0,0.0,60,0.00,,SCT070,0.04,VWS V14.01,2013-08-14 23:46:00,
2013-08-14 19:51:00,56.8,43.5,30.01,WSW,237,0.0,0.0,61,0.00,,SCT070,0.04,VWS V14.01,2013-08-14 23:51:00,
2013-08-14 19:56:00,56.7,43.4,30.04,WSW,237,0.0,0.0,61,0.00,,SCT070,0.04,VWS V14.01,2013-08-14 23:56:00,
2013-08-14 19:57:00,56.7,43.4,30.04,SW,235,0.0,0.0,61,0.00,,SCT070,0.04,VWS V14.01,2013-08-14 23:57:00,
2013-08-14 20:02:00,56.3,43.0,30.04,SW,235,0.0,0.0,61,0.00,,SCT070,0.04,VWS V14.01,2013-08-15 00:02:00,
2013-08-14 20:07:00,55.9,42.7,30.04,SW,236,0.0,0.0,61,0.00,,SCT070,0.04,VWS V14.01,2013-08-15 00:07:00,
2013-08-14 20:12:00,55.8,42.5,30.04,West,265,0.0,0.0,61,0.00,,CLR,0.04,VWS V14.01,2013-08-15 00:12:00,
2013-08-14 20:17:00,55.6,42.4,30.04,West,265,0.0,0.0,61,0.00,,CLR,0.04,VWS V14.01,2013-08-15 00:17:00,
2013-08-14 20:22:00,55.2,42.4,30.04,West,265,0.0,0.0,62,0.00,,CLR,0.04,VWS V14.01,2013-08-15 00:22:00,
2013-08-14 20:27:00,54.9,42.1,30.04,West,265,0.0,0.0,62,0.00,,CLR,0.04,VWS V14.01,2013-08-15 00:27:00,
2013-08-14 20:32:00,54.5,41.8,30.04,West,265,0.0,0.0,62,0.00,,CLR,0.04,VWS V14.01,2013-08-15 00:32:00,
2013-08-14 20:37:00,54.0,41.7,30.04,West,265,0.0,0.0,63,0.00,,CLR,0.04,VWS V14.01,2013-08-15 00:37:00,
2013-08-14 20:42:00,53.2,41.4,30.04,West,265,0.0,0.0,64,0.00,,CLR,0.04,VWS V14.01,2013-08-15 00:42:00,
2013-08-14 20:47:00,52.9,41.5,30.04,West,265,0.0,0.0,65,0.00,,CLR,0.04,VWS V14.01,2013-08-15 00:47:00,
2013-08-14 20:52:00,52.9,41.5,30.04,West,265,0.0,0.0,65,0.00,,CLR,0.04,VWS V14.01,2013-08-15 00:52:00,
2013-08-14 20:57:00,52.2,41.2,30.04,West,265,0.0,0.0,66,0.00,,CLR,0.04,VWS V14.01,2013-08-15 00:57:00,
2013-08-14 21:02:00,51.6,41.4,30.04,West,265,0.0,0.0,68,0.00,,CLR,0.04,VWS V14.01,2013-08-15 01:02:00,
2013-08-14 21:07:00,51.4,41.2,30.04,West,265,0.0,0.0,68,0.00,,CLR,0.04,VWS V14.01,2013-08-15 01:07:00,
2013-08-14 21:12:00,51.1,41.3,30.04,West,265,0.0,0.0,69,0.00,,CLR,0.04,VWS V14.01,2013-08-15 01:12:00,
2013-08-14 21:17:00,51.1,41.3,30.04,West,265,0.0,0.0,69,0.00,,CLR,0.04,VWS V14.01,2013-08-15 01:17:00,
2013-08-14 21:22:00,50.5,41.5,30.04,West,265,0.0,0.0,71,0.00,,CLR,0.04,VWS V14.01,2013-08-15 01:22:00,
2013-08-14 21:27:00,50.5,41.5,30.07,West,265,0.0,0.0,71,0.00,,CLR,0.04,VWS V14.01,2013-08-15 01:27:00,
2013-08-14 21:32:00,50.2,41.5,30.07,West,265,0.0,0.0,72,0.00,,CLR,0.04,VWS V14.01,2013-08-15 01:32:00,
2013-08-14 21:37:00,49.8,41.2,30.07,West,265,0.0,0.0,72,0.00,,CLR,0.04,VWS V14.01,2013-08-15 01:37:00,
2013-08-14 21:42:00,49.8,41.5,30.07,West,265,0.0,0.0,73,0.00,,CLR,0.04,VWS V14.01,2013-08-15 01:42:00,
2013-08-14 21:47:00,49.1,41.2,30.07,NNE,18,0.0,0.0,74,0.00,,CLR,0.04,VWS V14.01,2013-08-15 01:47:00,
2013-08-14 21:52:00,49.1,41.2,30.07,NNE,18,0.0,0.0,74,0.00,,CLR,0.04,VWS V14.01,2013-08-15 01:52:00,
2013-08-14 21:57:00,48.6,40.7,30.07,NNE,18,0.0,0.0,74,0.00,,CLR,0.04,VWS V14.01,2013-08-15 01:57:00,
2013-08-14 22:02:00,48.4,40.8,30.07,NNE,18,0.0,0.0,75,0.00,,CLR,0.04,VWS V14.01,2013-08-15 02:02:00,
2013-08-14 22:07:00,48.4,40.8,30.07,NNE,18,0.0,0.0,75,0.00,,CLR,0.04,VWS V14.01,2013-08-15 02:07:00,
2013-08-14 22:12:00,47.8,40.3,30.07,NNE,18,0.0,0.0,75,0.00,,CLR,0.04,VWS V14.01,2013-08-15 02:12:00,
2013-08-14 22:17:00,47.8,40.3,30.07,North,3,0.0,0.0,75,0.00,,CLR,0.04,VWS V14.01,2013-08-15 02:17:00,
2013-08-14 22:22:00,47.5,40.3,30.07,North,357,0.0,0.0,76,0.00,,CLR,0.04,VWS V14.01,2013-08-15 02:22:00,
2013-08-14 22:27:00,47.5,40.3,30.07,North,357,0.0,0.0,76,0.00,,CLR,0.04,VWS V14.01,2013-08-15 02:27:00,
2013-08-14 22:32:00,47.3,40.1,30.07,North,357,0.0,0.0,76,0.00,,CLR,0.04,VWS V14.01,2013-08-15 02:32:00,
2013-08-14 22:37:00,47.1,40.3,30.07,North,357,0.0,0.0,77,0.00,,CLR,0.04,VWS V14.01,2013-08-15 02:37:00,
2013-08-14 22:42:00,47.1,40.3,30.07,North,3,0.0,0.0,77,0.00,,CLR,0.04,VWS V14.01,2013-08-15 02:42:00,
2013-08-14 22:47:00,46.6,39.8,30.07,North,357,0.0,0.0,77,0.00,,CLR,0.04,VWS V14.01,2013-08-15 02:47:00,
2013-08-14 22:52:00,46.6,39.8,30.07,North,357,0.0,0.0,77,0.00,,CLR,0.04,VWS V14.01,2013-08-15 02:52:00,
2013-08-14 22:57:00,46.4,39.9,30.07,North,357,0.0,0.0,78,0.00,,CLR,0.04,VWS V14.01,2013-08-15 02:57:00,
2013-08-14 23:02:00,46.4,39.9,30.07,North,357,0.0,0.0,78,0.00,,CLR,0.04,VWS V14.01,2013-08-15 03:02:00,
2013-08-14 23:08:00,46.2,40.1,30.07,North,357,0.0,0.0,79,0.00,,CLR,0.04,VWS V14.01,2013-08-15 03:08:00,
2013-08-14 23:13:00,46.2,40.4,30.07,North,357,0.0,0.0,80,0.00,,CLR,0.04,VWS V14.01,2013-08-15 03:13:00,
2013-08-14 23:18:00,46.2,40.4,30.07,North,357,0.0,0.0,80,0.00,,CLR,0.04,VWS V14.01,2013-08-15 03:18:00,
2013-08-14 23:23:00,46.6,40.8,30.07,North,357,0.0,0.0,80,0.00,,CLR,0.04,VWS V14.01,2013-08-15 03:23:00,
2013-08-14 23:28:00,46.6,40.8,30.07,North,357,0.0,0.0,80,0.00,,CLR,0.04,VWS V14.01,2013-08-15 03:28:00,
2013-08-14 23:33:00,46.6,41.1,30.07,North,357,0.0,0.0,81,0.00,,CLR,0.04,VWS V14.01,2013-08-15 03:33:00,
2013-08-14 23:38:00,46.6,41.1,30.07,North,3,0.0,0.0,81,0.00,,CLR,0.04,VWS V14.01,2013-08-15 03:38:00,
2013-08-14 23:43:00,46.6,41.1,30.07,North,3,0.0,0.0,81,0.00,,CLR,0.04,VWS V14.01,2013-08-15 03:43:00,
2013-08-14 23:48:00,46.2,40.7,30.07,North,357,0.0,0.0,81,0.00,,CLR,0.04,VWS V14.01,2013-08-15 03:48:00,
2013-08-14 23:53:00,46.2,40.7,30.07,North,357,0.0,0.0,81,0.00,,CLR,0.04,VWS V14.01,2013-08-15 03:53:00,
2013-08-14 23:58:00,46.0,40.9,30.07,North,357,0.0,0.0,82,0.00,,CLR,0.04,VWS V14.01,2013-08-15 03:58:00,